Waterford, Pennsylvania
Current Conditions -  °F | °C
As of 8:51 AM on Thursday 23 Oct 2014 (Local Time) from KERI Reporting Station
Clear Clear  
Wind Chill: 52°   Ceiling: Unl
Heat Index: 52°   Visibility: 10mi
Dew Point: 43°   Wind: 7mph
Humidity: 71%   Direction: 30°NNE
Pressure: 30.17"   Gusts: NA
Location:  41.94°N, 79.98°W
Report Text: KERI 231251Z 03006KT 10SM CLR 11/06 A3017 RMK AO2 SLP218 T01110061
Loading
Personal Weather Stations






























Interactive Weather Map
Tropical Storm Tracking
New forecast layout! Learn more

10-Day Weather Forecast

Advertisements
Track Severe Weather on mobile